Time;durP1;ratioP1;P1;durP2;ratioP2;P2;SDS_P1;SDS_P2;PMS_P1;PMS_P2;Temp;Humidity;BMP_temperature;BMP_pressure;BME280_temperature;BME280_humidity;BME280_pressure;Samples;Min_cycle;Max_cycle;Signal;HPM_P1;HPM_P2
2022/07/06 00:00:40;;;;;;;13.20;3.70;;;;;;;;;;102294;1335;22670;-25
2022/07/06 00:03:11;;;;;;;23.10;3.80;;;;;;;;;;102340;1335;22592;-25
2022/07/06 00:05:40;;;;;;;4.00;3.70;;;;;;;;;;102414;1335;22589;-28
2022/07/06 00:08:09;;;;;;;12.20;4.50;;;;;;;;;;102308;1335;25932;-29
2022/07/06 00:10:38;;;;;;;6.60;3.70;;;;;;;;;;102226;1335;22596;-25
2022/07/06 00:13:07;;;;;;;4.10;3.60;;;;;;;;;;102271;1336;22582;-25
2022/07/06 00:15:35;;;;;;;8.50;6.00;;;;;;;;;;102309;1335;22575;-29
2022/07/06 00:18:04;;;;;;;14.70;7.10;;;;;;;;;;102423;1335;22644;-24
2022/07/06 00:20:33;;;;;;;6.60;6.00;;;;;;;;;;102350;1331;22598;-26
2022/07/06 00:23:02;;;;;;;11.50;7.00;;;;;;;;;;102304;1335;22665;-25
2022/07/06 00:25:31;;;;;;;8.80;6.20;;;;;;;;;;102351;1336;22888;-25
2022/07/06 00:27:59;;;;;;;30.70;5.80;;;;;;;;;;102385;1335;22600;-29
2022/07/06 00:30:28;;;;;;;14.10;5.10;;;;;;;;;;102367;1335;25252;-28
2022/07/06 00:32:58;;;;;;;7.00;6.30;;;;;;;;;;102385;1335;22593;-28
2022/07/06 00:35:26;;;;;;;6.90;6.00;;;;;;;;;;102403;1335;22606;-25
2022/07/06 00:37:55;;;;;;;5.10;4.60;;;;;;;;;;102308;1335;22608;-24
2022/07/06 00:40:24;;;;;;;12.80;6.00;;;;;;;;;;102304;1335;22593;-27
2022/07/06 00:42:53;;;;;;;11.00;5.90;;;;;;;;;;102359;1335;22609;-25
2022/07/06 00:45:22;;;;;;;12.90;7.00;;;;;;;;;;102356;1329;22585;-25
2022/07/06 00:47:51;;;;;;;7.90;6.50;;;;;;;;;;102276;1336;22606;-26
2022/07/06 00:50:21;;;;;;;13.10;9.10;;;;;;;;;;102357;1335;22902;-29
2022/07/06 00:52:51;;;;;;;9.60;6.60;;;;;;;;;;102263;1334;22611;-25
2022/07/06 00:55:22;;;;;;;24.70;8.30;;;;;;;;;;102354;1335;22606;-27
2022/07/06 00:57:51;;;;;;;6.90;5.80;;;;;;;;;;102364;1335;23910;-29
2022/07/06 01:00:20;;;;;;;8.70;7.90;;;;;;;;;;102321;1335;22696;-28
2022/07/06 01:02:49;;;;;;;18.60;5.00;;;;;;;;;;102284;1335;22614;-28
2022/07/06 01:05:18;;;;;;;16.40;4.00;;;;;;;;;;102351;1335;22595;-27
2022/07/06 01:07:47;;;;;;;20.20;4.70;;;;;;;;;;102229;1333;22593;-26
2022/07/06 01:10:17;;;;;;;10.40;6.00;;;;;;;;;;102330;1335;22559;-29
2022/07/06 01:12:46;;;;;;;18.00;11.20;;;;;;;;;;102267;1335;24886;-29
2022/07/06 01:15:16;;;;;;;34.20;11.90;;;;;;;;;;102381;1335;22603;-29
2022/07/06 01:17:45;;;;;;;10.40;9.40;;;;;;;;;;102271;1335;22603;-31
2022/07/06 01:20:15;;;;;;;32.40;20.90;;;;;;;;;;102368;1335;22707;-29
2022/07/06 01:22:44;;;;;;;57.70;31.70;;;;;;;;;;102319;1335;22618;-30
2022/07/06 01:25:13;;;;;;;33.50;16.50;;;;;;;;;;102395;1335;22741;-25
2022/07/06 01:27:42;;;;;;;29.10;9.20;;;;;;;;;;102334;1335;22687;-29
2022/07/06 01:30:11;;;;;;;7.60;6.90;;;;;;;;;;102403;1329;22718;-25
2022/07/06 01:32:40;;;;;;;13.70;10.80;;;;;;;;;;102319;1335;22688;-29
2022/07/06 01:35:10;;;;;;;13.20;10.70;;;;;;;;;;102299;1335;22589;-25
2022/07/06 01:37:39;;;;;;;11.10;7.80;;;;;;;;;;102381;1335;22600;-29
2022/07/06 01:40:09;;;;;;;9.20;4.10;;;;;;;;;;102354;1329;22607;-30
2022/07/06 01:42:39;;;;;;;7.10;5.50;;;;;;;;;;102271;1335;22605;-29
2022/07/06 01:45:08;;;;;;;36.00;9.20;;;;;;;;;;102320;1327;22641;-29
2022/07/06 01:47:37;;;;;;;16.00;9.50;;;;;;;;;;102364;1334;22621;-32
2022/07/06 01:50:06;;;;;;;18.10;10.70;;;;;;;;;;102377;1335;22583;-25
2022/07/06 01:52:36;;;;;;;77.70;38.50;;;;;;;;;;102333;1335;22610;-30
2022/07/06 01:55:05;;;;;;;46.90;24.90;;;;;;;;;;102344;1335;22895;-28
2022/07/06 01:57:34;;;;;;;34.60;22.00;;;;;;;;;;102331;1335;22620;-24
2022/07/06 02:00:04;;;;;;;19.40;10.30;;;;;;;;;;102339;1335;22581;-29
2022/07/06 02:02:33;;;;;;;17.00;10.80;;;;;;;;;;102320;1335;25355;-25
2022/07/06 02:05:02;;;;;;;22.80;12.80;;;;;;;;;;102338;1336;22599;-26
2022/07/06 02:07:31;;;;;;;17.90;9.80;;;;;;;;;;102276;1335;22639;-29
2022/07/06 02:10:00;;;;;;;29.90;7.60;;;;;;;;;;102301;1335;22776;-26
2022/07/06 02:12:28;;;;;;;18.80;8.10;;;;;;;;;;102390;1335;22715;-29
2022/07/06 02:14:57;;;;;;;20.70;9.10;;;;;;;;;;102255;1334;22892;-26
2022/07/06 02:17:26;;;;;;;24.90;10.30;;;;;;;;;;102330;1336;22621;-31
2022/07/06 02:19:55;;;;;;;11.60;8.20;;;;;;;;;;102256;1335;22591;-25
2022/07/06 02:22:24;;;;;;;8.30;6.20;;;;;;;;;;102376;1335;22586;-29
2022/07/06 02:24:53;;;;;;;10.60;7.80;;;;;;;;;;102258;1335;22600;-26
2022/07/06 02:27:22;;;;;;;7.60;5.40;;;;;;;;;;102355;1335;22601;-29
2022/07/06 02:29:51;;;;;;;6.00;4.40;;;;;;;;;;102339;1335;22599;-27
2022/07/06 02:32:19;;;;;;;9.00;4.40;;;;;;;;;;102328;1334;22591;-28
2022/07/06 02:34:48;;;;;;;5.90;4.40;;;;;;;;;;102335;1335;22616;-28
2022/07/06 02:37:17;;;;;;;4.90;4.50;;;;;;;;;;102403;1335;22602;-29
2022/07/06 02:39:46;;;;;;;6.30;5.60;;;;;;;;;;102363;1329;22631;-30
2022/07/06 02:42:14;;;;;;;8.70;4.60;;;;;;;;;;102295;1335;22620;-25
2022/07/06 02:44:43;;;;;;;5.70;5.10;;;;;;;;;;102278;1336;22625;-28
2022/07/06 02:47:12;;;;;;;5.10;4.50;;;;;;;;;;102275;1335;22595;-26
2022/07/06 02:49:41;;;;;;;5.60;5.00;;;;;;;;;;102283;1332;22599;-25
2022/07/06 02:52:10;;;;;;;9.50;4.70;;;;;;;;;;102274;1335;22588;-25
2022/07/06 02:54:39;;;;;;;6.60;4.50;;;;;;;;;;102303;1335;22607;-24
2022/07/06 02:57:07;;;;;;;9.00;7.50;;;;;;;;;;102233;1335;22711;-31
2022/07/06 02:59:37;;;;;;;6.60;5.80;;;;;;;;;;102304;1335;22598;-24
2022/07/06 03:02:05;;;;;;;11.80;4.60;;;;;;;;;;102282;1335;22596;-25
2022/07/06 03:04:34;;;;;;;21.70;5.60;;;;;;;;;;102257;1335;22597;-26
2022/07/06 03:07:03;;;;;;;4.90;3.90;;;;;;;;;;102429;1335;22617;-28
2022/07/06 03:09:32;;;;;;;9.00;5.30;;;;;;;;;;102405;1335;22616;-27
2022/07/06 03:12:01;;;;;;;16.20;4.70;;;;;;;;;;102320;1334;22585;-25
2022/07/06 03:14:30;;;;;;;4.30;3.80;;;;;;;;;;102351;1335;22593;-27
2022/07/06 03:16:59;;;;;;;8.50;4.90;;;;;;;;;;102425;1335;22714;-25
2022/07/06 03:19:27;;;;;;;4.60;3.90;;;;;;;;;;102312;1335;22612;-29
2022/07/06 03:21:56;;;;;;;6.00;3.80;;;;;;;;;;102400;1335;22596;-25
2022/07/06 03:24:25;;;;;;;6.00;4.20;;;;;;;;;;102386;1335;22688;-25
2022/07/06 03:26:54;;;;;;;6.80;5.10;;;;;;;;;;102412;1335;22711;-26
2022/07/06 03:29:23;;;;;;;7.10;6.40;;;;;;;;;;102328;1335;22621;-29
2022/07/06 03:31:51;;;;;;;8.60;5.80;;;;;;;;;;102358;1335;22603;-29
2022/07/06 03:34:20;;;;;;;7.30;6.30;;;;;;;;;;102303;1335;22865;-25
2022/07/06 03:36:49;;;;;;;7.90;6.50;;;;;;;;;;102388;1335;22639;-24
2022/07/06 03:39:18;;;;;;;11.60;7.10;;;;;;;;;;101669;1335;1003005;-31
2022/07/06 03:41:47;;;;;;;7.40;6.00;;;;;;;;;;102343;1335;22715;-29
2022/07/06 03:44:15;;;;;;;11.70;9.10;;;;;;;;;;102359;1335;22592;-29
2022/07/06 03:46:44;;;;;;;8.10;7.30;;;;;;;;;;102427;1335;22720;-26
2022/07/06 03:49:13;;;;;;;7.70;6.50;;;;;;;;;;102391;1335;22602;-25
2022/07/06 03:51:42;;;;;;;7.30;6.70;;;;;;;;;;102366;1335;22809;-29
2022/07/06 03:54:11;;;;;;;7.90;4.70;;;;;;;;;;102454;1335;22610;-30
2022/07/06 03:56:40;;;;;;;4.90;4.30;;;;;;;;;;102325;1335;22591;-27
2022/07/06 03:59:09;;;;;;;5.90;4.80;;;;;;;;;;102306;1335;22586;-29
2022/07/06 04:01:37;;;;;;;10.90;4.50;;;;;;;;;;102337;1327;22597;-29
2022/07/06 04:04:06;;;;;;;7.70;5.10;;;;;;;;;;102335;1335;22595;-29
2022/07/06 04:06:35;;;;;;;18.80;4.80;;;;;;;;;;102328;1335;22886;-27
2022/07/06 04:09:04;;;;;;;15.40;5.30;;;;;;;;;;102295;1333;22599;-24
2022/07/06 04:11:34;;;;;;;6.10;4.60;;;;;;;;;;102281;1335;22617;-25
2022/07/06 04:14:02;;;;;;;15.50;5.10;;;;;;;;;;102308;1335;22612;-25
2022/07/06 04:16:31;;;;;;;8.20;4.40;;;;;;;;;;102296;1329;22761;-29
2022/07/06 04:19:00;;;;;;;5.70;4.20;;;;;;;;;;102339;1335;22678;-29
2022/07/06 04:21:29;;;;;;;7.20;4.20;;;;;;;;;;102342;1335;22672;-25
2022/07/06 04:23:58;;;;;;;5.20;4.70;;;;;;;;;;102193;1335;22595;-29
2022/07/06 04:26:27;;;;;;;18.00;4.70;;;;;;;;;;102344;1335;22940;-31
2022/07/06 04:28:55;;;;;;;5.90;4.50;;;;;;;;;;102431;1335;22823;-30
2022/07/06 04:31:24;;;;;;;5.20;4.30;;;;;;;;;;102310;1335;22621;-30
2022/07/06 04:33:53;;;;;;;6.60;4.40;;;;;;;;;;102395;1335;22672;-24
2022/07/06 04:36:22;;;;;;;14.30;5.40;;;;;;;;;;102338;1335;22709;-28
2022/07/06 04:38:51;;;;;;;5.20;4.60;;;;;;;;;;102275;1335;22675;-24
2022/07/06 04:41:20;;;;;;;7.10;4.10;;;;;;;;;;102304;1335;22696;-30
2022/07/06 04:43:48;;;;;;;10.00;4.30;;;;;;;;;;102277;1335;22596;-25
2022/07/06 04:46:19;;;;;;;5.40;3.80;;;;;;;;;;102414;1335;22593;-29
2022/07/06 04:48:49;;;;;;;4.90;4.60;;;;;;;;;;101550;1336;1003055;-24
2022/07/06 04:51:18;;;;;;;4.20;3.80;;;;;;;;;;102324;1329;22559;-29
2022/07/06 04:53:47;;;;;;;5.00;4.60;;;;;;;;;;102354;1327;22609;-29
2022/07/06 04:56:15;;;;;;;4.50;3.50;;;;;;;;;;102333;1335;22587;-25
2022/07/06 04:58:44;;;;;;;7.80;4.50;;;;;;;;;;102346;1335;22591;-25
2022/07/06 05:01:13;;;;;;;6.20;4.70;;;;;;;;;;102347;1334;22614;-26
2022/07/06 05:03:42;;;;;;;4.50;4.10;;;;;;;;;;102303;1335;22604;-25
2022/07/06 05:06:11;;;;;;;4.30;3.90;;;;;;;;;;102420;1335;22689;-29
2022/07/06 05:08:40;;;;;;;4.70;4.30;;;;;;;;;;102400;1335;22572;-24
2022/07/06 05:11:08;;;;;;;10.00;4.40;;;;;;;;;;102419;1335;22593;-28
2022/07/06 05:13:37;;;;;;;9.50;6.40;;;;;;;;;;101567;1335;1003179;-25
2022/07/06 05:16:06;;;;;;;6.20;5.70;;;;;;;;;;102405;1335;22595;-28
2022/07/06 05:18:35;;;;;;;5.70;5.30;;;;;;;;;;102314;1335;22639;-28
2022/07/06 05:21:04;;;;;;;6.50;6.00;;;;;;;;;;102338;1335;22613;-24
2022/07/06 05:23:33;;;;;;;5.60;4.80;;;;;;;;;;102379;1335;22573;-31
2022/07/06 05:26:02;;;;;;;9.30;5.10;;;;;;;;;;102206;1335;22591;-28
2022/07/06 05:28:30;;;;;;;6.10;5.10;;;;;;;;;;102349;1335;22620;-30
2022/07/06 05:30:59;;;;;;;6.60;5.80;;;;;;;;;;102446;1335;22553;-28
2022/07/06 05:33:28;;;;;;;7.90;7.30;;;;;;;;;;102323;1335;22636;-28
2022/07/06 05:35:58;;;;;;;5.70;5.10;;;;;;;;;;102312;1335;22624;-28
2022/07/06 05:38:27;;;;;;;6.50;6.00;;;;;;;;;;102297;1335;22619;-23
2022/07/06 05:40:55;;;;;;;16.00;8.40;;;;;;;;;;102363;1335;22621;-25
2022/07/06 05:43:24;;;;;;;8.80;7.00;;;;;;;;;;102427;1335;22593;-28
2022/07/06 05:45:53;;;;;;;7.00;6.40;;;;;;;;;;102335;1335;22637;-24
2022/07/06 05:50:54;;;;;;;10.10;8.60;;;;;;;;;;102434;1335;22720;-26
2022/07/06 05:53:23;;;;;;;17.20;9.10;;;;;;;;;;102291;1335;22623;-28
2022/07/06 05:55:52;;;;;;;9.00;8.20;;;;;;;;;;102290;1335;22619;-30
2022/07/06 05:58:21;;;;;;;9.80;8.40;;;;;;;;;;102402;1335;22611;-29
2022/07/06 06:00:50;;;;;;;9.30;8.40;;;;;;;;;;102351;1335;22598;-29
2022/07/06 06:03:18;;;;;;;14.40;12.40;;;;;;;;;;102302;1335;22601;-25
2022/07/06 06:05:47;;;;;;;12.00;6.80;;;;;;;;;;102310;1335;22678;-25
2022/07/06 06:08:16;;;;;;;11.10;7.20;;;;;;;;;;102396;1335;22596;-29
2022/07/06 06:10:45;;;;;;;9.30;8.50;;;;;;;;;;102307;1335;22593;-30
2022/07/06 06:13:13;;;;;;;8.40;7.60;;;;;;;;;;102333;1335;22598;-29
2022/07/06 06:15:42;;;;;;;7.80;6.60;;;;;;;;;;102215;1335;22593;-25
2022/07/06 06:18:12;;;;;;;6.60;6.00;;;;;;;;;;102235;1336;78573;-25
2022/07/06 06:20:41;;;;;;;8.10;5.50;;;;;;;;;;102308;1335;22575;-29
2022/07/06 06:23:09;;;;;;;4.70;4.10;;;;;;;;;;102282;1335;22728;-29
2022/07/06 06:25:38;;;;;;;4.50;3.40;;;;;;;;;;102260;1335;22596;-29
2022/07/06 06:28:08;;;;;;;6.20;5.50;;;;;;;;;;102389;1335;22590;-30
2022/07/06 06:30:37;;;;;;;7.40;4.50;;;;;;;;;;102301;1328;22611;-24
2022/07/06 06:33:06;;;;;;;8.00;5.10;;;;;;;;;;102387;1335;22605;-30
2022/07/06 06:35:36;;;;;;;3.70;3.30;;;;;;;;;;102409;1335;22606;-30
2022/07/06 06:38:04;;;;;;;3.80;3.20;;;;;;;;;;102395;1335;22625;-26
2022/07/06 06:40:33;;;;;;;4.70;3.40;;;;;;;;;;102330;1335;22720;-25
2022/07/06 06:43:02;;;;;;;3.50;2.20;;;;;;;;;;102375;1335;22591;-30
2022/07/06 06:45:31;;;;;;;7.30;3.00;;;;;;;;;;102319;1329;22594;-25
2022/07/06 06:48:00;;;;;;;2.90;2.00;;;;;;;;;;102362;1335;22720;-32
2022/07/06 06:50:29;;;;;;;3.90;3.30;;;;;;;;;;102368;1335;22630;-25
2022/07/06 06:52:57;;;;;;;5.40;2.20;;;;;;;;;;102265;1335;22597;-25
2022/07/06 06:55:26;;;;;;;3.00;2.40;;;;;;;;;;102351;1335;22703;-30
2022/07/06 06:57:55;;;;;;;2.50;2.40;;;;;;;;;;102303;1335;22601;-30
2022/07/06 07:00:24;;;;;;;1.60;1.40;;;;;;;;;;102356;1335;22654;-31
2022/07/06 07:02:53;;;;;;;3.70;1.90;;;;;;;;;;102170;1335;22700;-25
2022/07/06 07:05:22;;;;;;;4.50;2.30;;;;;;;;;;102397;1335;22727;-25
2022/07/06 07:07:50;;;;;;;2.00;1.20;;;;;;;;;;102343;1335;22910;-30
2022/07/06 07:10:21;;;;;;;3.10;1.40;;;;;;;;;;102353;1330;22725;-33
2022/07/06 07:12:49;;;;;;;5.80;2.60;;;;;;;;;;102292;1335;23112;-27
2022/07/06 07:15:18;;;;;;;3.70;3.10;;;;;;;;;;102406;1334;22566;-27
2022/07/06 07:17:47;;;;;;;11.30;2.30;;;;;;;;;;102320;1329;22656;-25
2022/07/06 07:20:16;;;;;;;2.10;2.00;;;;;;;;;;102305;1335;22590;-24
2022/07/06 07:22:45;;;;;;;2.70;2.40;;;;;;;;;;102380;1335;22679;-25
2022/07/06 07:25:14;;;;;;;3.00;2.00;;;;;;;;;;102372;1335;22655;-24
2022/07/06 07:27:42;;;;;;;2.60;1.70;;;;;;;;;;102280;1335;22605;-30
2022/07/06 07:30:11;;;;;;;3.00;2.80;;;;;;;;;;102363;1335;22715;-32
2022/07/06 07:32:40;;;;;;;5.00;3.10;;;;;;;;;;102343;1335;22648;-25
2022/07/06 07:35:09;;;;;;;2.60;2.20;;;;;;;;;;102251;1335;22621;-31
2022/07/06 07:37:38;;;;;;;5.70;3.30;;;;;;;;;;102229;1335;22615;-30
2022/07/06 07:40:07;;;;;;;4.40;2.90;;;;;;;;;;102232;1335;22716;-32
2022/07/06 07:42:38;;;;;;;3.60;3.30;;;;;;;;;;102457;1335;22651;-29
2022/07/06 07:45:08;;;;;;;4.30;2.10;;;;;;;;;;102374;1335;22586;-23
2022/07/06 07:47:36;;;;;;;3.10;2.80;;;;;;;;;;102261;1335;22632;-25
2022/07/06 07:50:06;;;;;;;2.50;2.30;;;;;;;;;;102230;1335;22587;-24
2022/07/06 07:52:34;;;;;;;10.90;3.20;;;;;;;;;;102373;1335;22581;-25
2022/07/06 07:55:04;;;;;;;3.50;3.10;;;;;;;;;;102301;1335;22621;-30
2022/07/06 07:57:33;;;;;;;5.10;2.90;;;;;;;;;;102248;1335;22595;-30
2022/07/06 08:00:02;;;;;;;4.00;3.70;;;;;;;;;;102340;1336;22685;-30
2022/07/06 08:02:31;;;;;;;9.40;3.70;;;;;;;;;;102313;1335;22716;-30
2022/07/06 08:05:00;;;;;;;4.40;3.10;;;;;;;;;;102336;1335;22620;-26
2022/07/06 08:07:29;;;;;;;5.20;4.40;;;;;;;;;;102278;1335;22945;-25
2022/07/06 08:09:58;;;;;;;6.30;5.50;;;;;;;;;;102427;1329;22602;-27
2022/07/06 08:12:26;;;;;;;10.30;5.30;;;;;;;;;;102442;1335;22617;-30
2022/07/06 08:14:55;;;;;;;4.40;3.90;;;;;;;;;;102337;1335;22687;-26
2022/07/06 08:17:24;;;;;;;8.60;3.90;;;;;;;;;;102351;1335;22574;-30
2022/07/06 08:19:53;;;;;;;13.00;6.60;;;;;;;;;;102471;1329;22600;-26
2022/07/06 08:22:22;;;;;;;5.30;3.80;;;;;;;;;;102348;1335;22711;-29
2022/07/06 08:24:51;;;;;;;5.90;4.30;;;;;;;;;;102397;1335;22711;-30
2022/07/06 08:27:20;;;;;;;5.20;4.50;;;;;;;;;;102314;1335;22670;-30
2022/07/06 08:29:49;;;;;;;4.20;3.80;;;;;;;;;;102285;1335;22698;-30
2022/07/06 08:32:19;;;;;;;4.60;3.00;;;;;;;;;;102398;1335;22614;-25
2022/07/06 08:34:48;;;;;;;4.50;4.00;;;;;;;;;;102404;1335;22599;-26
2022/07/06 08:37:17;;;;;;;7.60;3.60;;;;;;;;;;102358;1335;22599;-25
2022/07/06 08:39:46;;;;;;;4.80;4.30;;;;;;;;;;102389;1335;22725;-32
2022/07/06 08:42:15;;;;;;;5.90;3.70;;;;;;;;;;102302;1335;22680;-25
2022/07/06 08:44:44;;;;;;;4.90;4.50;;;;;;;;;;102366;1335;22596;-26
2022/07/06 08:47:13;;;;;;;6.70;3.90;;;;;;;;;;102412;1335;22575;-25
2022/07/06 08:49:42;;;;;;;3.40;3.00;;;;;;;;;;102298;1335;22602;-26
2022/07/06 08:52:11;;;;;;;3.20;2.60;;;;;;;;;;102267;1335;22599;-25
2022/07/06 08:54:40;;;;;;;2.70;2.50;;;;;;;;;;102360;1335;22608;-30
2022/07/06 08:57:09;;;;;;;3.90;2.80;;;;;;;;;;102308;1335;22594;-30
2022/07/06 08:59:38;;;;;;;4.40;3.80;;;;;;;;;;102333;1335;22603;-25
2022/07/06 09:02:09;;;;;;;4.40;3.80;;;;;;;;;;102316;1335;22577;-24
2022/07/06 09:04:37;;;;;;;1.80;1.70;;;;;;;;;;102271;1335;22577;-32
2022/07/06 09:07:06;;;;;;;3.30;2.80;;;;;;;;;;102351;1330;22610;-24
2022/07/06 09:09:35;;;;;;;2.30;1.40;;;;;;;;;;102350;1329;22590;-32
2022/07/06 09:12:04;;;;;;;2.30;1.90;;;;;;;;;;102346;1335;22748;-27
2022/07/06 09:14:33;;;;;;;1.80;1.40;;;;;;;;;;102263;1329;22701;-30
2022/07/06 09:17:03;;;;;;;1.00;0.90;;;;;;;;;;102340;1335;22967;-32
2022/07/06 09:19:32;;;;;;;2.80;1.60;;;;;;;;;;102309;1335;22627;-27
2022/07/06 09:22:01;;;;;;;1.00;0.90;;;;;;;;;;102372;1335;22584;-32
2022/07/06 09:24:31;;;;;;;0.60;0.60;;;;;;;;;;102352;1335;22670;-29
2022/07/06 09:27:00;;;;;;;1.10;0.90;;;;;;;;;;102331;1334;22590;-30
2022/07/06 09:29:30;;;;;;;2.20;1.10;;;;;;;;;;102275;1335;22698;-32
2022/07/06 09:31:59;;;;;;;0.60;0.60;;;;;;;;;;102294;1335;22605;-32
2022/07/06 09:34:31;;;;;;;4.00;1.10;;;;;;;;;;102281;1335;22726;-27
2022/07/06 09:37:00;;;;;;;1.30;1.00;;;;;;;;;;102370;1335;22583;-31
2022/07/06 09:39:29;;;;;;;1.00;0.90;;;;;;;;;;102470;1335;22561;-31
2022/07/06 09:42:01;;;;;;;6.50;1.90;;;;;;;;;;102223;1335;22674;-30
2022/07/06 09:44:30;;;;;;;2.40;0.80;;;;;;;;;;102375;1335;23101;-26
2022/07/06 09:47:00;;;;;;;1.30;1.10;;;;;;;;;;102371;1335;22688;-27
2022/07/06 09:49:28;;;;;;;3.90;1.40;;;;;;;;;;102338;1335;22712;-25
2022/07/06 09:51:58;;;;;;;1.30;0.50;;;;;;;;;;102306;1335;22580;-25
2022/07/06 09:54:27;;;;;;;1.20;0.80;;;;;;;;;;102335;1334;22617;-26
2022/07/06 09:56:56;;;;;;;2.10;1.00;;;;;;;;;;102361;1335;22594;-24
2022/07/06 09:59:26;;;;;;;1.40;0.80;;;;;;;;;;102368;1335;22604;-24
2022/07/06 10:01:56;;;;;;;0.90;0.90;;;;;;;;;;102336;1335;22595;-28
2022/07/06 10:04:25;;;;;;;4.40;0.90;;;;;;;;;;102331;1335;22620;-32
2022/07/06 10:06:54;;;;;;;3.40;1.00;;;;;;;;;;102365;1334;22731;-32
2022/07/06 10:09:24;;;;;;;1.00;0.90;;;;;;;;;;102356;1335;22717;-32
2022/07/06 10:11:54;;;;;;;2.40;1.30;;;;;;;;;;102335;1330;24032;-30
2022/07/06 10:14:23;;;;;;;1.50;0.70;;;;;;;;;;102274;1335;22597;-26
2022/07/06 10:16:52;;;;;;;2.20;1.00;;;;;;;;;;102229;1335;23059;-25
2022/07/06 10:19:21;;;;;;;1.30;1.00;;;;;;;;;;102429;1335;22600;-30
2022/07/06 10:21:51;;;;;;;1.10;0.90;;;;;;;;;;102349;1335;22613;-29
2022/07/06 10:24:20;;;;;;;2.50;1.00;;;;;;;;;;102314;1328;22606;-26
2022/07/06 10:26:49;;;;;;;2.00;1.40;;;;;;;;;;102365;1335;22569;-32
2022/07/06 10:29:18;;;;;;;3.90;2.00;;;;;;;;;;102308;1335;22767;-27
2022/07/06 10:31:48;;;;;;;1.70;1.40;;;;;;;;;;102312;1335;22674;-25
2022/07/06 10:34:18;;;;;;;1.70;1.60;;;;;;;;;;102318;1335;22616;-30
2022/07/06 10:36:49;;;;;;;2.80;1.60;;;;;;;;;;102282;1328;22896;-29
2022/07/06 10:42:11;;;;;;;;;;;;;;;;;;102366;1335;22595;-29
2022/07/06 10:44:44;;;;;;;3.70;1.60;;;;;;;;;;102429;1335;22601;-28
2022/07/06 10:47:13;;;;;;;1.00;0.90;;;;;;;;;;102280;1335;22601;-24
2022/07/06 10:49:48;;;;;;;5.10;1.20;;;;;;;;;;102284;1329;22595;-29
2022/07/06 10:52:17;;;;;;;4.40;2.10;;;;;;;;;;102303;1335;22580;-25
2022/07/06 10:54:45;;;;;;;3.60;1.90;;;;;;;;;;102388;1335;22585;-27
2022/07/06 10:57:15;;;;;;;2.60;1.60;;;;;;;;;;102263;1335;22579;-29
2022/07/06 10:59:47;;;;;;;3.20;1.60;;;;;;;;;;102325;1335;22600;-24
2022/07/06 11:02:17;;;;;;;5.30;2.40;;;;;;;;;;102334;1335;22604;-31
2022/07/06 11:04:46;;;;;;;2.00;1.80;;;;;;;;;;102333;1335;22620;-29
2022/07/06 11:07:16;;;;;;;4.90;2.10;;;;;;;;;;102383;1335;22600;-31
2022/07/06 11:09:48;;;;;;;2.60;2.20;;;;;;;;;;102342;1329;22868;-29
2022/07/06 11:12:18;;;;;;;2.90;2.10;;;;;;;;;;102333;1329;22786;-25
2022/07/06 11:14:48;;;;;;;3.60;1.60;;;;;;;;;;102406;1336;22617;-25
2022/07/06 11:17:17;;;;;;;1.10;0.90;;;;;;;;;;102314;1336;22568;-29
2022/07/06 11:19:48;;;;;;;2.40;1.30;;;;;;;;;;102345;1335;22729;-25
2022/07/06 11:22:17;;;;;;;1.50;1.10;;;;;;;;;;102353;1335;22639;-29
2022/07/06 11:24:46;;;;;;;2.70;1.40;;;;;;;;;;102415;1329;22703;-25
2022/07/06 11:27:15;;;;;;;9.50;1.60;;;;;;;;;;102428;1335;22601;-25
2022/07/06 11:29:45;;;;;;;5.40;1.70;;;;;;;;;;102386;1335;22620;-29
2022/07/06 11:32:14;;;;;;;2.40;0.90;;;;;;;;;;102439;1335;22713;-31
2022/07/06 11:34:43;;;;;;;1.30;1.00;;;;;;;;;;102401;1335;22596;-31
2022/07/06 11:37:12;;;;;;;1.60;0.90;;;;;;;;;;102337;1335;22612;-29
2022/07/06 11:39:42;;;;;;;3.40;1.00;;;;;;;;;;102309;1335;22580;-28
2022/07/06 11:42:12;;;;;;;2.80;0.50;;;;;;;;;;102422;1335;22587;-29
2022/07/06 11:44:41;;;;;;;0.80;0.70;;;;;;;;;;102314;1335;22610;-26
2022/07/06 11:47:10;;;;;;;1.00;0.70;;;;;;;;;;102382;1335;25941;-26
2022/07/06 11:49:39;;;;;;;1.70;0.90;;;;;;;;;;102318;1335;22592;-26
2022/07/06 11:52:08;;;;;;;0.70;0.70;;;;;;;;;;102343;1335;22641;-25
2022/07/06 11:54:37;;;;;;;0.90;0.60;;;;;;;;;;102321;1335;22666;-29
2022/07/06 11:57:07;;;;;;;3.20;1.40;;;;;;;;;;102269;1335;22649;-29
2022/07/06 11:59:37;;;;;;;1.00;0.70;;;;;;;;;;102309;1335;22659;-25
2022/07/06 12:02:06;;;;;;;2.70;0.90;;;;;;;;;;102349;1335;22573;-29
2022/07/06 12:04:36;;;;;;;1.30;0.80;;;;;;;;;;102394;1335;22609;-28
2022/07/06 12:07:07;;;;;;;4.00;0.80;;;;;;;;;;102294;1335;22596;-29
2022/07/06 12:09:45;;;;;;;2.10;0.50;;;;;;;;;;102216;1335;22598;-23
2022/07/06 12:12:14;;;;;;;0.70;0.50;;;;;;;;;;102360;1335;22600;-28
2022/07/06 12:14:43;;;;;;;1.10;0.60;;;;;;;;;;102389;1335;22576;-26
2022/07/06 12:17:13;;;;;;;6.00;0.80;;;;;;;;;;102414;1335;25245;-28
2022/07/06 12:19:41;;;;;;;0.70;0.40;;;;;;;;;;102315;1335;22598;-30
2022/07/06 12:22:10;;;;;;;0.50;0.50;;;;;;;;;;102193;1335;22588;-27
2022/07/06 12:24:43;;;;;;;1.20;0.50;;;;;;;;;;102338;1336;22569;-25
2022/07/06 12:27:14;;;;;;;1.90;0.90;;;;;;;;;;102232;1335;22587;-28
2022/07/06 12:29:43;;;;;;;0.50;0.50;;;;;;;;;;102397;1335;22611;-28
2022/07/06 12:32:14;;;;;;;1.00;0.70;;;;;;;;;;102329;1335;22733;-24
2022/07/06 12:34:44;;;;;;;2.10;0.80;;;;;;;;;;102325;1334;22588;-28
2022/07/06 12:37:13;;;;;;;1.30;0.80;;;;;;;;;;102336;1335;22589;-24
2022/07/06 12:39:43;;;;;;;5.70;0.70;;;;;;;;;;102351;1334;23925;-29
2022/07/06 12:42:13;;;;;;;5.50;1.00;;;;;;;;;;102365;1334;22582;-24
2022/07/06 12:44:46;;;;;;;7.40;0.60;;;;;;;;;;102314;1334;22603;-24
2022/07/06 12:47:18;;;;;;;2.30;1.00;;;;;;;;;;102373;1334;22606;-27
2022/07/06 12:49:47;;;;;;;4.70;0.80;;;;;;;;;;102355;1335;22579;-26
2022/07/06 12:52:27;;;;;;;3.70;1.30;;;;;;;;;;102382;1335;22648;-25
2022/07/06 12:54:59;;;;;;;1.00;0.60;;;;;;;;;;102342;1335;22596;-25
2022/07/06 12:57:28;;;;;;;4.20;1.30;;;;;;;;;;102320;1335;22618;-24
2022/07/06 12:59:57;;;;;;;3.80;2.00;;;;;;;;;;102296;1334;22597;-24
2022/07/06 13:02:27;;;;;;;3.70;3.30;;;;;;;;;;102361;1335;22664;-32
2022/07/06 13:04:58;;;;;;;4.40;1.80;;;;;;;;;;102280;1335;22592;-24
2022/07/06 13:07:27;;;;;;;3.60;1.50;;;;;;;;;;102383;1335;22593;-31
2022/07/06 13:09:56;;;;;;;3.20;1.40;;;;;;;;;;102369;1335;22691;-26
2022/07/06 13:12:25;;;;;;;5.70;2.60;;;;;;;;;;102348;1329;22784;-29
2022/07/06 13:14:54;;;;;;;2.70;1.60;;;;;;;;;;102308;1327;22636;-25
2022/07/06 13:17:23;;;;;;;4.50;1.00;;;;;;;;;;102405;1335;22886;-26
2022/07/06 13:19:51;;;;;;;3.40;1.20;;;;;;;;;;102308;1335;22573;-26
2022/07/06 13:22:20;;;;;;;1.90;1.70;;;;;;;;;;102319;1335;22618;-29
2022/07/06 13:24:49;;;;;;;1.70;1.50;;;;;;;;;;102324;1334;22618;-25
2022/07/06 13:27:18;;;;;;;2.10;1.60;;;;;;;;;;102283;1335;22619;-27
2022/07/06 13:29:47;;;;;;;2.00;1.00;;;;;;;;;;102350;1335;22599;-30
2022/07/06 13:32:15;;;;;;;1.10;0.80;;;;;;;;;;102339;1335;22593;-32
2022/07/06 13:34:44;;;;;;;1.70;0.90;;;;;;;;;;102351;1334;22659;-30
2022/07/06 13:37:13;;;;;;;2.00;1.30;;;;;;;;;;102267;1335;22601;-30
2022/07/06 13:39:42;;;;;;;1.90;0.80;;;;;;;;;;102325;1335;22603;-26
2022/07/06 13:42:11;;;;;;;2.00;1.20;;;;;;;;;;102334;1335;22720;-28
2022/07/06 13:44:40;;;;;;;1.30;0.60;;;;;;;;;;102274;1335;22609;-28
2022/07/06 13:47:09;;;;;;;0.60;0.50;;;;;;;;;;102278;1335;22583;-26
2022/07/06 13:49:37;;;;;;;4.70;0.70;;;;;;;;;;102401;1334;22609;-30
2022/07/06 13:52:06;;;;;;;1.70;0.80;;;;;;;;;;102299;1335;22610;-30
2022/07/06 13:54:35;;;;;;;0.70;0.60;;;;;;;;;;102342;1335;22599;-30
2022/07/06 13:57:05;;;;;;;1.00;0.40;;;;;;;;;;102337;1335;22596;-26
2022/07/06 13:59:34;;;;;;;0.60;0.50;;;;;;;;;;102350;1335;22726;-30
2022/07/06 14:02:02;;;;;;;1.50;0.80;;;;;;;;;;102309;1335;22600;-30
2022/07/06 14:04:31;;;;;;;0.60;0.50;;;;;;;;;;102272;1335;22590;-30
2022/07/06 14:07:00;;;;;;;0.50;0.30;;;;;;;;;;102329;1335;22682;-25
2022/07/06 14:09:29;;;;;;;0.70;0.30;;;;;;;;;;102343;1335;22581;-25
2022/07/06 14:11:58;;;;;;;0.60;0.50;;;;;;;;;;102356;1335;22595;-26
2022/07/06 14:14:27;;;;;;;1.00;0.60;;;;;;;;;;102358;1335;22620;-29
2022/07/06 14:16:56;;;;;;;0.40;0.30;;;;;;;;;;102128;1335;279857;-25
2022/07/06 14:19:26;;;;;;;6.80;0.40;;;;;;;;;;102245;1335;22618;-30
2022/07/06 14:21:54;;;;;;;0.50;0.50;;;;;;;;;;102316;1335;22604;-30
2022/07/06 14:24:23;;;;;;;5.70;0.50;;;;;;;;;;101585;1327;1003065;-29
2022/07/06 14:26:52;;;;;;;0.20;0.10;;;;;;;;;;102336;1335;22733;-25
2022/07/06 14:29:21;;;;;;;1.80;0.60;;;;;;;;;;102362;1335;22744;-25
2022/07/06 14:31:50;;;;;;;0.80;0.50;;;;;;;;;;102436;1335;22658;-30
2022/07/06 14:34:19;;;;;;;1.10;0.60;;;;;;;;;;102259;1335;22861;-25
2022/07/06 14:36:47;;;;;;;0.60;0.50;;;;;;;;;;102375;1334;22604;-32
2022/07/06 14:39:16;;;;;;;1.70;0.40;;;;;;;;;;102213;1336;22713;-31
2022/07/06 14:41:45;;;;;;;1.00;0.50;;;;;;;;;;102407;1335;23039;-24